sensor_id;sensor_type;location;lat;lon;timestamp;P1;durP1;ratioP1;P2;durP2;ratioP2
74974;SDS011;68459;50.836;19.138;2023-09-18T00:00:15;7.23;;;4.73;;
74974;SDS011;68459;50.836;19.138;2023-09-18T00:03:39;7.68;;;4.80;;
74974;SDS011;68459;50.836;19.138;2023-09-18T00:06:42;6.03;;;4.45;;
74974;SDS011;68459;50.836;19.138;2023-09-18T00:09:48;7.75;;;5.22;;
74974;SDS011;68459;50.836;19.138;2023-09-18T00:12:53;7.37;;;4.80;;
74974;SDS011;68459;50.836;19.138;2023-09-18T00:15:56;7.53;;;4.75;;
74974;SDS011;68459;50.836;19.138;2023-09-18T00:19:01;6.20;;;4.47;;
74974;SDS011;68459;50.836;19.138;2023-09-18T00:22:05;7.03;;;4.90;;
74974;SDS011;68459;50.836;19.138;2023-09-18T00:25:10;7.15;;;4.47;;
74974;SDS011;68459;50.836;19.138;2023-09-18T00:28:13;6.43;;;4.80;;
74974;SDS011;68459;50.836;19.138;2023-09-18T00:31:17;6.18;;;4.40;;
74974;SDS011;68459;50.836;19.138;2023-09-18T00:34:22;6.10;;;4.60;;
74974;SDS011;68459;50.836;19.138;2023-09-18T00:37:25;6.53;;;4.45;;
74974;SDS011;68459;50.836;19.138;2023-09-18T00:40:30;7.72;;;4.72;;
74974;SDS011;68459;50.836;19.138;2023-09-18T00:43:34;8.57;;;5.03;;
74974;SDS011;68459;50.836;19.138;2023-09-18T00:46:38;6.75;;;5.07;;
74974;SDS011;68459;50.836;19.138;2023-09-18T00:49:41;6.65;;;4.50;;
74974;SDS011;68459;50.836;19.138;2023-09-18T00:52:50;7.15;;;4.72;;
74974;SDS011;68459;50.836;19.138;2023-09-18T00:55:55;7.67;;;4.80;;
74974;SDS011;68459;50.836;19.138;2023-09-18T00:59:02;8.88;;;5.32;;
74974;SDS011;68459;50.836;19.138;2023-09-18T01:02:06;6.32;;;4.93;;
74974;SDS011;68459;50.836;19.138;2023-09-18T01:05:11;7.10;;;4.63;;
74974;SDS011;68459;50.836;19.138;2023-09-18T01:08:14;7.97;;;4.85;;
74974;SDS011;68459;50.836;19.138;2023-09-18T01:11:22;6.32;;;4.63;;
74974;SDS011;68459;50.836;19.138;2023-09-18T01:14:31;6.72;;;4.70;;
74974;SDS011;68459;50.836;19.138;2023-09-18T01:17:39;8.17;;;5.20;;
74974;SDS011;68459;50.836;19.138;2023-09-18T01:20:44;7.80;;;4.45;;
74974;SDS011;68459;50.836;19.138;2023-09-18T01:23:49;8.27;;;4.93;;
74974;SDS011;68459;50.836;19.138;2023-09-18T01:26:53;6.32;;;4.65;;
74974;SDS011;68459;50.836;19.138;2023-09-18T01:29:56;7.77;;;5.00;;
74974;SDS011;68459;50.836;19.138;2023-09-18T01:33:00;7.95;;;5.03;;
74974;SDS011;68459;50.836;19.138;2023-09-18T01:36:06;8.73;;;5.35;;
74974;SDS011;68459;50.836;19.138;2023-09-18T01:39:12;6.07;;;4.40;;
74974;SDS011;68459;50.836;19.138;2023-09-18T01:42:19;6.50;;;4.60;;
74974;SDS011;68459;50.836;19.138;2023-09-18T01:45:24;7.10;;;4.93;;
74974;SDS011;68459;50.836;19.138;2023-09-18T01:48:29;7.82;;;4.97;;
74974;SDS011;68459;50.836;19.138;2023-09-18T01:51:33;7.33;;;4.93;;
74974;SDS011;68459;50.836;19.138;2023-09-18T01:54:38;8.23;;;5.20;;
74974;SDS011;68459;50.836;19.138;2023-09-18T01:57:41;8.00;;;4.88;;
74974;SDS011;68459;50.836;19.138;2023-09-18T02:00:46;8.57;;;4.97;;
74974;SDS011;68459;50.836;19.138;2023-09-18T02:03:50;9.38;;;5.75;;
74974;SDS011;68459;50.836;19.138;2023-09-18T02:07:14;7.82;;;5.10;;
74974;SDS011;68459;50.836;19.138;2023-09-18T02:10:19;8.38;;;5.72;;
74974;SDS011;68459;50.836;19.138;2023-09-18T02:13:23;8.80;;;5.40;;
74974;SDS011;68459;50.836;19.138;2023-09-18T02:16:26;9.57;;;5.18;;
74974;SDS011;68459;50.836;19.138;2023-09-18T02:19:30;7.75;;;5.03;;
74974;SDS011;68459;50.836;19.138;2023-09-18T02:22:35;7.50;;;5.20;;
74974;SDS011;68459;50.836;19.138;2023-09-18T02:25:41;7.80;;;4.95;;
74974;SDS011;68459;50.836;19.138;2023-09-18T02:28:45;9.27;;;5.00;;
74974;SDS011;68459;50.836;19.138;2023-09-18T02:31:49;9.48;;;5.25;;
74974;SDS011;68459;50.836;19.138;2023-09-18T02:34:53;7.90;;;5.50;;
74974;SDS011;68459;50.836;19.138;2023-09-18T02:37:58;10.57;;;5.53;;
74974;SDS011;68459;50.836;19.138;2023-09-18T02:41:03;8.02;;;5.47;;
74974;SDS011;68459;50.836;19.138;2023-09-18T02:44:07;8.73;;;5.55;;
74974;SDS011;68459;50.836;19.138;2023-09-18T02:47:11;8.18;;;5.80;;
74974;SDS011;68459;50.836;19.138;2023-09-18T02:50:15;10.90;;;5.50;;
74974;SDS011;68459;50.836;19.138;2023-09-18T02:53:20;8.25;;;5.28;;
74974;SDS011;68459;50.836;19.138;2023-09-18T02:56:26;10.53;;;5.93;;
74974;SDS011;68459;50.836;19.138;2023-09-18T02:59:29;9.00;;;5.85;;
74974;SDS011;68459;50.836;19.138;2023-09-18T03:02:34;9.85;;;6.00;;
74974;SDS011;68459;50.836;19.138;2023-09-18T03:05:38;10.50;;;5.60;;
74974;SDS011;68459;50.836;19.138;2023-09-18T03:08:43;10.20;;;5.80;;
74974;SDS011;68459;50.836;19.138;2023-09-18T03:11:48;10.25;;;5.82;;
74974;SDS011;68459;50.836;19.138;2023-09-18T03:14:52;9.68;;;5.45;;
74974;SDS011;68459;50.836;19.138;2023-09-18T03:17:56;10.33;;;6.17;;
74974;SDS011;68459;50.836;19.138;2023-09-18T03:21:01;8.98;;;5.80;;
74974;SDS011;68459;50.836;19.138;2023-09-18T03:24:05;10.73;;;6.30;;
74974;SDS011;68459;50.836;19.138;2023-09-18T03:27:11;9.63;;;5.83;;
74974;SDS011;68459;50.836;19.138;2023-09-18T03:30:15;7.55;;;5.45;;
74974;SDS011;68459;50.836;19.138;2023-09-18T03:33:19;8.25;;;5.90;;
74974;SDS011;68459;50.836;19.138;2023-09-18T03:36:22;11.02;;;5.47;;
74974;SDS011;68459;50.836;19.138;2023-09-18T03:39:27;10.27;;;6.10;;
74974;SDS011;68459;50.836;19.138;2023-09-18T03:42:32;10.80;;;5.95;;
74974;SDS011;68459;50.836;19.138;2023-09-18T03:45:36;10.48;;;6.18;;
74974;SDS011;68459;50.836;19.138;2023-09-18T03:48:40;9.60;;;5.83;;
74974;SDS011;68459;50.836;19.138;2023-09-18T03:51:44;9.15;;;5.78;;
74974;SDS011;68459;50.836;19.138;2023-09-18T03:54:48;9.63;;;5.88;;
74974;SDS011;68459;50.836;19.138;2023-09-18T03:57:53;10.23;;;6.03;;
74974;SDS011;68459;50.836;19.138;2023-09-18T04:00:57;11.43;;;5.65;;
74974;SDS011;68459;50.836;19.138;2023-09-18T04:04:01;8.82;;;6.25;;
74974;SDS011;68459;50.836;19.138;2023-09-18T04:07:06;11.68;;;5.95;;
74974;SDS011;68459;50.836;19.138;2023-09-18T04:10:11;10.73;;;5.90;;
74974;SDS011;68459;50.836;19.138;2023-09-18T04:13:21;12.52;;;6.30;;
74974;SDS011;68459;50.836;19.138;2023-09-18T04:16:25;12.02;;;6.13;;
74974;SDS011;68459;50.836;19.138;2023-09-18T04:19:29;13.10;;;5.88;;
74974;SDS011;68459;50.836;19.138;2023-09-18T04:22:33;9.98;;;5.57;;
74974;SDS011;68459;50.836;19.138;2023-09-18T04:25:38;9.57;;;6.78;;
74974;SDS011;68459;50.836;19.138;2023-09-18T04:28:43;11.20;;;6.38;;
74974;SDS011;68459;50.836;19.138;2023-09-18T04:31:47;11.67;;;6.80;;
74974;SDS011;68459;50.836;19.138;2023-09-18T04:34:51;12.73;;;6.90;;
74974;SDS011;68459;50.836;19.138;2023-09-18T04:37:55;15.07;;;6.97;;
74974;SDS011;68459;50.836;19.138;2023-09-18T04:41:00;10.95;;;7.25;;
74974;SDS011;68459;50.836;19.138;2023-09-18T04:44:05;12.23;;;7.23;;
74974;SDS011;68459;50.836;19.138;2023-09-18T04:47:10;11.65;;;7.65;;
74974;SDS011;68459;50.836;19.138;2023-09-18T04:50:14;11.05;;;6.78;;
74974;SDS011;68459;50.836;19.138;2023-09-18T04:53:21;13.63;;;7.55;;
74974;SDS011;68459;50.836;19.138;2023-09-18T04:56:24;16.88;;;7.32;;
74974;SDS011;68459;50.836;19.138;2023-09-18T04:59:30;13.98;;;7.97;;
74974;SDS011;68459;50.836;19.138;2023-09-18T05:02:34;12.90;;;7.10;;
74974;SDS011;68459;50.836;19.138;2023-09-18T05:05:39;13.47;;;7.93;;
74974;SDS011;68459;50.836;19.138;2023-09-18T05:08:42;12.30;;;7.40;;
74974;SDS011;68459;50.836;19.138;2023-09-18T05:11:47;17.05;;;7.10;;
74974;SDS011;68459;50.836;19.138;2023-09-18T05:14:52;12.35;;;7.47;;
74974;SDS011;68459;50.836;19.138;2023-09-18T05:17:57;14.10;;;8.02;;
74974;SDS011;68459;50.836;19.138;2023-09-18T05:21:02;14.48;;;7.70;;
74974;SDS011;68459;50.836;19.138;2023-09-18T05:24:07;11.30;;;7.13;;
74974;SDS011;68459;50.836;19.138;2023-09-18T05:27:10;13.97;;;7.40;;
74974;SDS011;68459;50.836;19.138;2023-09-18T05:30:17;17.05;;;7.18;;
74974;SDS011;68459;50.836;19.138;2023-09-18T05:33:23;13.23;;;7.60;;
74974;SDS011;68459;50.836;19.138;2023-09-18T05:36:27;13.00;;;7.35;;
74974;SDS011;68459;50.836;19.138;2023-09-18T05:39:31;16.00;;;8.70;;
74974;SDS011;68459;50.836;19.138;2023-09-18T05:42:36;12.05;;;7.75;;
74974;SDS011;68459;50.836;19.138;2023-09-18T05:45:41;13.05;;;7.85;;
74974;SDS011;68459;50.836;19.138;2023-09-18T05:48:44;13.65;;;8.68;;
74974;SDS011;68459;50.836;19.138;2023-09-18T05:51:48;12.27;;;8.30;;
74974;SDS011;68459;50.836;19.138;2023-09-18T05:54:52;12.77;;;8.55;;
74974;SDS011;68459;50.836;19.138;2023-09-18T05:57:55;16.83;;;8.43;;
74974;SDS011;68459;50.836;19.138;2023-09-18T06:01:00;13.90;;;7.97;;
74974;SDS011;68459;50.836;19.138;2023-09-18T06:04:04;11.48;;;8.30;;
74974;SDS011;68459;50.836;19.138;2023-09-18T06:07:09;13.02;;;8.65;;
74974;SDS011;68459;50.836;19.138;2023-09-18T06:10:13;11.95;;;8.32;;
74974;SDS011;68459;50.836;19.138;2023-09-18T06:13:17;14.50;;;8.50;;
74974;SDS011;68459;50.836;19.138;2023-09-18T06:16:22;15.40;;;8.68;;
74974;SDS011;68459;50.836;19.138;2023-09-18T06:19:26;12.73;;;8.27;;
74974;SDS011;68459;50.836;19.138;2023-09-18T06:22:29;13.20;;;8.50;;
74974;SDS011;68459;50.836;19.138;2023-09-18T06:25:33;14.52;;;8.40;;
74974;SDS011;68459;50.836;19.138;2023-09-18T06:28:36;14.50;;;9.15;;
74974;SDS011;68459;50.836;19.138;2023-09-18T06:31:42;12.75;;;8.70;;
74974;SDS011;68459;50.836;19.138;2023-09-18T06:34:45;14.37;;;9.00;;
74974;SDS011;68459;50.836;19.138;2023-09-18T06:37:49;14.75;;;8.63;;
74974;SDS011;68459;50.836;19.138;2023-09-18T06:40:53;14.07;;;8.82;;
74974;SDS011;68459;50.836;19.138;2023-09-18T06:43:57;12.77;;;8.52;;
74974;SDS011;68459;50.836;19.138;2023-09-18T06:47:03;12.63;;;8.87;;
74974;SDS011;68459;50.836;19.138;2023-09-18T06:50:07;13.60;;;8.30;;
74974;SDS011;68459;50.836;19.138;2023-09-18T06:53:11;13.45;;;8.75;;
74974;SDS011;68459;50.836;19.138;2023-09-18T06:56:15;14.15;;;8.73;;
74974;SDS011;68459;50.836;19.138;2023-09-18T06:59:18;14.60;;;8.23;;
74974;SDS011;68459;50.836;19.138;2023-09-18T07:02:23;13.70;;;8.35;;
74974;SDS011;68459;50.836;19.138;2023-09-18T07:05:27;11.15;;;7.60;;
74974;SDS011;68459;50.836;19.138;2023-09-18T07:08:31;11.43;;;8.38;;
74974;SDS011;68459;50.836;19.138;2023-09-18T07:11:35;12.97;;;8.43;;
74974;SDS011;68459;50.836;19.138;2023-09-18T07:14:39;12.05;;;8.85;;
74974;SDS011;68459;50.836;19.138;2023-09-18T07:17:44;13.43;;;8.48;;
74974;SDS011;68459;50.836;19.138;2023-09-18T07:20:48;11.90;;;8.27;;
74974;SDS011;68459;50.836;19.138;2023-09-18T07:23:52;13.23;;;8.80;;
74974;SDS011;68459;50.836;19.138;2023-09-18T07:26:56;15.60;;;9.07;;
74974;SDS011;68459;50.836;19.138;2023-09-18T07:30:00;14.15;;;8.60;;
74974;SDS011;68459;50.836;19.138;2023-09-18T07:33:05;13.38;;;8.30;;
74974;SDS011;68459;50.836;19.138;2023-09-18T07:36:09;13.98;;;8.10;;
74974;SDS011;68459;50.836;19.138;2023-09-18T07:39:14;12.00;;;8.52;;
74974;SDS011;68459;50.836;19.138;2023-09-18T07:42:17;13.80;;;8.43;;
74974;SDS011;68459;50.836;19.138;2023-09-18T07:45:22;11.13;;;8.13;;
74974;SDS011;68459;50.836;19.138;2023-09-18T07:48:27;12.52;;;8.63;;
74974;SDS011;68459;50.836;19.138;2023-09-18T07:51:31;14.32;;;8.60;;
74974;SDS011;68459;50.836;19.138;2023-09-18T07:54:35;11.15;;;8.07;;
74974;SDS011;68459;50.836;19.138;2023-09-18T07:57:39;11.57;;;8.13;;
74974;SDS011;68459;50.836;19.138;2023-09-18T08:00:42;10.25;;;8.15;;
74974;SDS011;68459;50.836;19.138;2023-09-18T08:03:47;14.88;;;8.45;;
74974;SDS011;68459;50.836;19.138;2023-09-18T08:06:51;13.80;;;8.77;;
74974;SDS011;68459;50.836;19.138;2023-09-18T08:09:55;13.55;;;8.30;;
74974;SDS011;68459;50.836;19.138;2023-09-18T08:12:58;10.30;;;8.13;;
74974;SDS011;68459;50.836;19.138;2023-09-18T08:16:02;13.30;;;8.85;;
74974;SDS011;68459;50.836;19.138;2023-09-18T08:19:07;12.02;;;8.77;;
74974;SDS011;68459;50.836;19.138;2023-09-18T08:22:12;13.40;;;8.65;;
74974;SDS011;68459;50.836;19.138;2023-09-18T08:25:17;12.43;;;9.30;;
74974;SDS011;68459;50.836;19.138;2023-09-18T08:28:21;13.37;;;9.43;;
74974;SDS011;68459;50.836;19.138;2023-09-18T08:31:24;13.00;;;9.27;;
74974;SDS011;68459;50.836;19.138;2023-09-18T08:34:31;10.68;;;8.93;;
74974;SDS011;68459;50.836;19.138;2023-09-18T08:37:34;13.77;;;9.00;;
74974;SDS011;68459;50.836;19.138;2023-09-18T08:40:39;11.55;;;8.75;;
74974;SDS011;68459;50.836;19.138;2023-09-18T08:43:43;11.77;;;9.23;;
74974;SDS011;68459;50.836;19.138;2023-09-18T08:46:49;15.32;;;9.05;;
74974;SDS011;68459;50.836;19.138;2023-09-18T08:49:54;13.43;;;9.70;;
74974;SDS011;68459;50.836;19.138;2023-09-18T08:53:00;12.20;;;9.80;;
74974;SDS011;68459;50.836;19.138;2023-09-18T08:56:07;13.48;;;9.35;;
74974;SDS011;68459;50.836;19.138;2023-09-18T08:59:11;13.70;;;9.47;;
74974;SDS011;68459;50.836;19.138;2023-09-18T09:02:15;12.40;;;9.20;;
74974;SDS011;68459;50.836;19.138;2023-09-18T09:05:21;12.70;;;9.38;;
74974;SDS011;68459;50.836;19.138;2023-09-18T09:08:25;13.25;;;9.93;;
74974;SDS011;68459;50.836;19.138;2023-09-18T09:11:28;17.80;;;9.48;;
74974;SDS011;68459;50.836;19.138;2023-09-18T09:14:32;12.07;;;8.77;;
74974;SDS011;68459;50.836;19.138;2023-09-18T09:17:36;14.68;;;9.70;;
74974;SDS011;68459;50.836;19.138;2023-09-18T09:20:41;15.23;;;8.98;;
74974;SDS011;68459;50.836;19.138;2023-09-18T09:24:01;10.48;;;8.60;;
74974;SDS011;68459;50.836;19.138;2023-09-18T09:27:06;11.20;;;9.30;;
74974;SDS011;68459;50.836;19.138;2023-09-18T09:30:10;11.80;;;8.93;;
74974;SDS011;68459;50.836;19.138;2023-09-18T09:33:14;10.43;;;8.60;;
74974;SDS011;68459;50.836;19.138;2023-09-18T09:36:21;11.07;;;8.65;;
74974;SDS011;68459;50.836;19.138;2023-09-18T09:39:25;11.98;;;9.23;;
74974;SDS011;68459;50.836;19.138;2023-09-18T09:42:30;13.35;;;9.43;;
74974;SDS011;68459;50.836;19.138;2023-09-18T09:45:42;12.03;;;9.23;;
74974;SDS011;68459;50.836;19.138;2023-09-18T09:48:58;11.98;;;9.32;;
74974;SDS011;68459;50.836;19.138;2023-09-18T09:52:04;10.73;;;8.93;;
74974;SDS011;68459;50.836;19.138;2023-09-18T09:55:24;11.48;;;8.43;;
74974;SDS011;68459;50.836;19.138;2023-09-18T09:58:30;11.57;;;8.77;;
74974;SDS011;68459;50.836;19.138;2023-09-18T10:01:34;12.00;;;8.73;;
74974;SDS011;68459;50.836;19.138;2023-09-18T10:04:38;15.75;;;8.65;;
74974;SDS011;68459;50.836;19.138;2023-09-18T10:07:43;10.70;;;8.63;;
74974;SDS011;68459;50.836;19.138;2023-09-18T10:10:48;11.93;;;8.98;;
74974;SDS011;68459;50.836;19.138;2023-09-18T10:13:55;11.43;;;8.23;;
74974;SDS011;68459;50.836;19.138;2023-09-18T10:17:04;10.10;;;8.23;;
74974;SDS011;68459;50.836;19.138;2023-09-18T10:20:15;9.60;;;7.78;;
74974;SDS011;68459;50.836;19.138;2023-09-18T10:23:26;11.77;;;8.43;;
74974;SDS011;68459;50.836;19.138;2023-09-18T10:26:44;9.85;;;7.88;;
74974;SDS011;68459;50.836;19.138;2023-09-18T10:29:53;11.73;;;8.40;;
74974;SDS011;68459;50.836;19.138;2023-09-18T10:32:58;10.17;;;8.23;;
74974;SDS011;68459;50.836;19.138;2023-09-18T10:36:03;11.75;;;8.10;;
74974;SDS011;68459;50.836;19.138;2023-09-18T10:39:11;12.32;;;8.93;;
74974;SDS011;68459;50.836;19.138;2023-09-18T10:42:14;22.10;;;10.20;;
74974;SDS011;68459;50.836;19.138;2023-09-18T10:45:20;11.77;;;9.18;;
74974;SDS011;68459;50.836;19.138;2023-09-18T10:48:24;9.53;;;8.10;;
74974;SDS011;68459;50.836;19.138;2023-09-18T10:51:29;12.10;;;8.27;;
74974;SDS011;68459;50.836;19.138;2023-09-18T10:54:36;11.52;;;7.75;;
74974;SDS011;68459;50.836;19.138;2023-09-18T10:57:49;10.13;;;7.60;;
74974;SDS011;68459;50.836;19.138;2023-09-18T11:00:53;9.05;;;8.02;;
74974;SDS011;68459;50.836;19.138;2023-09-18T11:03:59;10.17;;;7.67;;
74974;SDS011;68459;50.836;19.138;2023-09-18T11:07:04;11.27;;;7.93;;
74974;SDS011;68459;50.836;19.138;2023-09-18T11:10:26;11.32;;;7.75;;
74974;SDS011;68459;50.836;19.138;2023-09-18T11:13:31;11.35;;;7.75;;
74974;SDS011;68459;50.836;19.138;2023-09-18T11:16:37;12.20;;;7.88;;
74974;SDS011;68459;50.836;19.138;2023-09-18T11:19:41;9.03;;;7.97;;
74974;SDS011;68459;50.836;19.138;2023-09-18T11:22:48;8.73;;;7.40;;
74974;SDS011;68459;50.836;19.138;2023-09-18T11:26:02;13.13;;;9.68;;
74974;SDS011;68459;50.836;19.138;2023-09-18T11:29:08;8.93;;;7.63;;
74974;SDS011;68459;50.836;19.138;2023-09-18T11:32:13;9.02;;;7.85;;
74974;SDS011;68459;50.836;19.138;2023-09-18T11:35:19;10.03;;;7.47;;
74974;SDS011;68459;50.836;19.138;2023-09-18T11:38:22;8.93;;;7.72;;
74974;SDS011;68459;50.836;19.138;2023-09-18T11:41:29;10.43;;;7.97;;
74974;SDS011;68459;50.836;19.138;2023-09-18T11:44:34;10.00;;;8.15;;
74974;SDS011;68459;50.836;19.138;2023-09-18T11:47:44;13.77;;;8.10;;
74974;SDS011;68459;50.836;19.138;2023-09-18T11:50:48;10.47;;;8.03;;
74974;SDS011;68459;50.836;19.138;2023-09-18T11:53:54;9.88;;;7.70;;
74974;SDS011;68459;50.836;19.138;2023-09-18T11:57:03;10.30;;;7.80;;
74974;SDS011;68459;50.836;19.138;2023-09-18T12:00:17;9.68;;;7.47;;
74974;SDS011;68459;50.836;19.138;2023-09-18T12:03:25;9.18;;;7.25;;
74974;SDS011;68459;50.836;19.138;2023-09-18T12:06:29;8.77;;;7.03;;
74974;SDS011;68459;50.836;19.138;2023-09-18T12:09:33;8.43;;;7.53;;
74974;SDS011;68459;50.836;19.138;2023-09-18T12:12:38;10.57;;;7.95;;
74974;SDS011;68459;50.836;19.138;2023-09-18T12:15:41;10.32;;;7.70;;
74974;SDS011;68459;50.836;19.138;2023-09-18T12:18:45;10.27;;;8.02;;
74974;SDS011;68459;50.836;19.138;2023-09-18T12:21:50;10.17;;;7.43;;
74974;SDS011;68459;50.836;19.138;2023-09-18T12:24:57;8.68;;;7.60;;
74974;SDS011;68459;50.836;19.138;2023-09-18T12:28:16;11.93;;;7.90;;
74974;SDS011;68459;50.836;19.138;2023-09-18T12:31:20;9.15;;;7.53;;
74974;SDS011;68459;50.836;19.138;2023-09-18T12:34:24;8.90;;;7.60;;
74974;SDS011;68459;50.836;19.138;2023-09-18T12:37:28;9.17;;;7.70;;
74974;SDS011;68459;50.836;19.138;2023-09-18T12:40:32;9.45;;;6.90;;
74974;SDS011;68459;50.836;19.138;2023-09-18T12:43:38;11.70;;;7.35;;
74974;SDS011;68459;50.836;19.138;2023-09-18T12:46:43;9.45;;;7.25;;
74974;SDS011;68459;50.836;19.138;2023-09-18T12:49:49;8.75;;;7.78;;
74974;SDS011;68459;50.836;19.138;2023-09-18T12:52:52;9.07;;;7.33;;
74974;SDS011;68459;50.836;19.138;2023-09-18T12:56:04;8.38;;;7.57;;
74974;SDS011;68459;50.836;19.138;2023-09-18T12:59:10;8.68;;;7.30;;
74974;SDS011;68459;50.836;19.138;2023-09-18T13:02:20;8.82;;;7.30;;
74974;SDS011;68459;50.836;19.138;2023-09-18T13:05:29;8.27;;;7.00;;
74974;SDS011;68459;50.836;19.138;2023-09-18T13:08:35;10.43;;;6.73;;
74974;SDS011;68459;50.836;19.138;2023-09-18T13:11:51;8.80;;;6.90;;
74974;SDS011;68459;50.836;19.138;2023-09-18T13:15:00;8.48;;;6.90;;
74974;SDS011;68459;50.836;19.138;2023-09-18T13:18:09;9.02;;;7.18;;
74974;SDS011;68459;50.836;19.138;2023-09-18T13:21:14;7.20;;;6.50;;
74974;SDS011;68459;50.836;19.138;2023-09-18T13:24:24;8.00;;;6.90;;
74974;SDS011;68459;50.836;19.138;2023-09-18T13:27:29;8.52;;;6.75;;
74974;SDS011;68459;50.836;19.138;2023-09-18T13:30:35;9.43;;;6.78;;
74974;SDS011;68459;50.836;19.138;2023-09-18T13:33:41;10.93;;;6.88;;
74974;SDS011;68459;50.836;19.138;2023-09-18T13:36:47;8.43;;;6.63;;
74974;SDS011;68459;50.836;19.138;2023-09-18T13:39:51;10.47;;;6.90;;
74974;SDS011;68459;50.836;19.138;2023-09-18T13:42:54;7.75;;;6.95;;
74974;SDS011;68459;50.836;19.138;2023-09-18T13:45:59;9.77;;;6.72;;
74974;SDS011;68459;50.836;19.138;2023-09-18T13:49:06;8.75;;;6.65;;
74974;SDS011;68459;50.836;19.138;2023-09-18T13:52:10;8.40;;;6.38;;
74974;SDS011;68459;50.836;19.138;2023-09-18T13:55:13;7.20;;;6.50;;
74974;SDS011;68459;50.836;19.138;2023-09-18T13:58:17;7.50;;;6.63;;
74974;SDS011;68459;50.836;19.138;2023-09-18T14:01:22;8.35;;;6.95;;
74974;SDS011;68459;50.836;19.138;2023-09-18T14:04:28;10.07;;;7.43;;
74974;SDS011;68459;50.836;19.138;2023-09-18T14:07:31;7.07;;;6.30;;
74974;SDS011;68459;50.836;19.138;2023-09-18T14:10:35;7.87;;;6.50;;
74974;SDS011;68459;50.836;19.138;2023-09-18T14:13:41;7.03;;;6.32;;
74974;SDS011;68459;50.836;19.138;2023-09-18T14:16:46;7.60;;;5.90;;
74974;SDS011;68459;50.836;19.138;2023-09-18T14:19:51;6.55;;;5.40;;
74974;SDS011;68459;50.836;19.138;2023-09-18T14:22:55;6.15;;;5.47;;
74974;SDS011;68459;50.836;19.138;2023-09-18T14:25:59;7.47;;;4.73;;
74974;SDS011;68459;50.836;19.138;2023-09-18T14:29:03;6.40;;;4.93;;
74974;SDS011;68459;50.836;19.138;2023-09-18T14:32:08;6.63;;;5.20;;
74974;SDS011;68459;50.836;19.138;2023-09-18T14:35:12;4.88;;;4.35;;
74974;SDS011;68459;50.836;19.138;2023-09-18T14:38:15;6.57;;;4.72;;
74974;SDS011;68459;50.836;19.138;2023-09-18T14:41:20;5.90;;;5.03;;
74974;SDS011;68459;50.836;19.138;2023-09-18T14:44:23;6.05;;;4.72;;
74974;SDS011;68459;50.836;19.138;2023-09-18T14:47:28;5.82;;;4.60;;
74974;SDS011;68459;50.836;19.138;2023-09-18T14:50:33;5.38;;;4.78;;
74974;SDS011;68459;50.836;19.138;2023-09-18T14:53:37;6.75;;;4.97;;
74974;SDS011;68459;50.836;19.138;2023-09-18T14:56:41;6.40;;;4.83;;
74974;SDS011;68459;50.836;19.138;2023-09-18T14:59:45;7.60;;;4.38;;
74974;SDS011;68459;50.836;19.138;2023-09-18T15:02:51;5.05;;;4.35;;
74974;SDS011;68459;50.836;19.138;2023-09-18T15:05:55;4.68;;;4.05;;
74974;SDS011;68459;50.836;19.138;2023-09-18T15:08:58;5.85;;;4.90;;
74974;SDS011;68459;50.836;19.138;2023-09-18T15:12:02;4.80;;;4.30;;
74974;SDS011;68459;50.836;19.138;2023-09-18T15:15:06;7.18;;;4.32;;
74974;SDS011;68459;50.836;19.138;2023-09-18T15:18:12;5.95;;;4.60;;
74974;SDS011;68459;50.836;19.138;2023-09-18T15:21:15;6.85;;;4.55;;
74974;SDS011;68459;50.836;19.138;2023-09-18T15:24:19;6.63;;;4.80;;
74974;SDS011;68459;50.836;19.138;2023-09-18T15:27:23;6.67;;;4.60;;
74974;SDS011;68459;50.836;19.138;2023-09-18T15:30:26;5.85;;;4.28;;
74974;SDS011;68459;50.836;19.138;2023-09-18T15:33:31;7.32;;;4.63;;
74974;SDS011;68459;50.836;19.138;2023-09-18T15:36:35;8.73;;;5.18;;
74974;SDS011;68459;50.836;19.138;2023-09-18T15:39:38;6.60;;;4.50;;
74974;SDS011;68459;50.836;19.138;2023-09-18T15:42:42;5.13;;;4.50;;
74974;SDS011;68459;50.836;19.138;2023-09-18T15:45:45;5.47;;;4.80;;
74974;SDS011;68459;50.836;19.138;2023-09-18T15:48:50;6.72;;;4.80;;
74974;SDS011;68459;50.836;19.138;2023-09-18T15:51:53;5.60;;;4.50;;
74974;SDS011;68459;50.836;19.138;2023-09-18T15:54:57;6.80;;;4.70;;
74974;SDS011;68459;50.836;19.138;2023-09-18T15:58:02;6.23;;;4.67;;
74974;SDS011;68459;50.836;19.138;2023-09-18T16:01:06;8.52;;;5.15;;
74974;SDS011;68459;50.836;19.138;2023-09-18T16:04:16;9.02;;;4.88;;
74974;SDS011;68459;50.836;19.138;2023-09-18T16:07:21;7.85;;;4.95;;
74974;SDS011;68459;50.836;19.138;2023-09-18T16:10:24;8.18;;;4.93;;
74974;SDS011;68459;50.836;19.138;2023-09-18T16:13:28;8.43;;;4.83;;
74974;SDS011;68459;50.836;19.138;2023-09-18T16:16:32;8.65;;;5.20;;
74974;SDS011;68459;50.836;19.138;2023-09-18T16:19:38;9.57;;;5.40;;
74974;SDS011;68459;50.836;19.138;2023-09-18T16:22:41;12.00;;;5.13;;
74974;SDS011;68459;50.836;19.138;2023-09-18T16:25:49;9.02;;;5.35;;
74974;SDS011;68459;50.836;19.138;2023-09-18T16:28:52;9.13;;;5.33;;
74974;SDS011;68459;50.836;19.138;2023-09-18T16:31:56;7.30;;;5.45;;
74974;SDS011;68459;50.836;19.138;2023-09-18T16:35:01;6.53;;;5.68;;
74974;SDS011;68459;50.836;19.138;2023-09-18T16:38:07;8.63;;;5.43;;
74974;SDS011;68459;50.836;19.138;2023-09-18T16:41:11;10.27;;;5.65;;
74974;SDS011;68459;50.836;19.138;2023-09-18T16:44:14;6.57;;;5.20;;
74974;SDS011;68459;50.836;19.138;2023-09-18T16:47:19;7.75;;;5.15;;
74974;SDS011;68459;50.836;19.138;2023-09-18T16:50:28;9.05;;;5.45;;
74974;SDS011;68459;50.836;19.138;2023-09-18T16:53:32;8.10;;;5.72;;
74974;SDS011;68459;50.836;19.138;2023-09-18T16:56:35;9.10;;;5.35;;
74974;SDS011;68459;50.836;19.138;2023-09-18T16:59:39;11.20;;;5.83;;
74974;SDS011;68459;50.836;19.138;2023-09-18T17:02:44;8.27;;;5.90;;
74974;SDS011;68459;50.836;19.138;2023-09-18T17:05:50;8.55;;;6.18;;
74974;SDS011;68459;50.836;19.138;2023-09-18T17:08:54;8.60;;;6.70;;
74974;SDS011;68459;50.836;19.138;2023-09-18T17:11:57;9.93;;;6.35;;
74974;SDS011;68459;50.836;19.138;2023-09-18T17:15:01;10.27;;;6.13;;
74974;SDS011;68459;50.836;19.138;2023-09-18T17:18:05;9.55;;;6.22;;
74974;SDS011;68459;50.836;19.138;2023-09-18T17:21:11;9.30;;;6.50;;
74974;SDS011;68459;50.836;19.138;2023-09-18T17:24:14;8.27;;;6.63;;
74974;SDS011;68459;50.836;19.138;2023-09-18T17:27:18;9.60;;;6.88;;
74974;SDS011;68459;50.836;19.138;2023-09-18T17:30:22;11.33;;;6.70;;
74974;SDS011;68459;50.836;19.138;2023-09-18T17:33:26;9.75;;;6.70;;
74974;SDS011;68459;50.836;19.138;2023-09-18T17:36:31;9.43;;;6.88;;
74974;SDS011;68459;50.836;19.138;2023-09-18T17:39:42;13.57;;;7.53;;
74974;SDS011;68459;50.836;19.138;2023-09-18T17:42:45;9.45;;;6.82;;
74974;SDS011;68459;50.836;19.138;2023-09-18T17:45:51;11.20;;;7.50;;
74974;SDS011;68459;50.836;19.138;2023-09-18T17:48:55;12.07;;;7.68;;
74974;SDS011;68459;50.836;19.138;2023-09-18T17:52:00;13.82;;;8.02;;
74974;SDS011;68459;50.836;19.138;2023-09-18T17:55:08;10.80;;;7.85;;
74974;SDS011;68459;50.836;19.138;2023-09-18T17:58:11;11.32;;;7.90;;
74974;SDS011;68459;50.836;19.138;2023-09-18T18:01:15;10.90;;;7.77;;
74974;SDS011;68459;50.836;19.138;2023-09-18T18:04:19;10.18;;;7.40;;
74974;SDS011;68459;50.836;19.138;2023-09-18T18:07:24;11.57;;;8.20;;
74974;SDS011;68459;50.836;19.138;2023-09-18T18:10:28;11.52;;;7.70;;